Time;durP1;ratioP1;P1;durP2;ratioP2;P2;SDS_P1;SDS_P2;PMS_P1;PMS_P2;Temp;Humidity;BMP_temperature;BMP_pressure;BME280_temperature;BME280_humidity;BME280_pressure;Samples;Min_cycle;Max_cycle;Signal;HPM_P1;HPM_P2
2022/12/13 00:00:44;;;;;;;39.20;16.75;;;-8.10;99.90;;;;;;4998841;28;20841;-87
2022/12/13 00:03:11;;;;;;;29.73;15.65;;;-8.20;99.90;;;;;;5015808;28;20045;-85
2022/12/13 00:05:43;;;;;;;28.35;14.10;;;-8.20;99.90;;;;;;4999050;28;20052;-85
2022/12/13 00:08:09;;;;;;;33.50;15.88;;;-8.30;99.90;;;;;;5012443;28;20425;-86
2022/12/13 00:10:35;;;;;;;34.15;17.30;;;-8.30;99.90;;;;;;5011251;28;20041;-86
2022/12/13 00:13:00;;;;;;;38.72;16.33;;;-8.30;99.90;;;;;;4983570;28;20045;-86
2022/12/13 00:15:26;;;;;;;28.90;14.68;;;-8.40;99.90;;;;;;4998616;28;20048;-86
2022/12/13 00:17:52;;;;;;;32.22;15.60;;;-8.40;99.90;;;;;;4996218;28;20120;-85
2022/12/13 00:20:18;;;;;;;32.70;15.27;;;-8.50;99.90;;;;;;4982328;28;20571;-85
2022/12/13 00:22:44;;;;;;;32.13;15.35;;;-8.50;99.90;;;;;;4982068;28;20425;-85
2022/12/13 00:25:09;;;;;;;34.25;15.48;;;-8.50;99.90;;;;;;4979476;28;20037;-86
2022/12/13 00:27:35;;;;;;;33.42;16.75;;;-8.50;99.90;;;;;;4987701;28;20033;-86
2022/12/13 00:30:01;;;;;;;30.17;14.57;;;-8.50;99.90;;;;;;4993330;28;20034;-85
2022/12/13 00:32:27;;;;;;;33.20;15.40;;;-8.50;99.90;;;;;;4997497;28;20124;-86
2022/12/13 00:34:53;;;;;;;32.72;15.30;;;-8.50;99.90;;;;;;4995115;28;20073;-86
2022/12/13 00:37:19;;;;;;;35.25;16.10;;;-8.50;99.90;;;;;;4982712;28;20026;-85
2022/12/13 00:39:44;;;;;;;34.22;15.82;;;-8.50;99.90;;;;;;4997508;28;20112;-85
2022/12/13 00:42:10;;;;;;;32.63;16.95;;;-8.50;99.90;;;;;;4981152;28;20049;-85
2022/12/13 00:44:36;;;;;;;33.20;16.73;;;-8.50;99.90;;;;;;4989938;28;20038;-86
2022/12/13 00:47:02;;;;;;;33.10;14.90;;;-8.60;99.90;;;;;;5003678;28;20041;-86
2022/12/13 00:49:28;;;;;;;32.35;15.40;;;-8.60;99.90;;;;;;4980336;28;20040;-86
2022/12/13 00:51:54;;;;;;;31.38;15.50;;;-8.60;99.90;;;;;;4980811;28;20034;-85
2022/12/13 00:54:20;;;;;;;29.42;15.85;;;-8.60;99.90;;;;;;4995895;28;20042;-85
2022/12/13 00:56:46;;;;;;;31.75;15.85;;;-8.60;99.90;;;;;;4991125;28;20034;-86
2022/12/13 00:59:14;;;;;;;27.80;14.75;;;-8.70;99.90;;;;;;4981018;28;20413;-85
2022/12/13 01:01:40;;;;;;;31.08;15.40;;;-8.60;99.90;;;;;;5004482;28;20041;-86
2022/12/13 01:04:06;;;;;;;36.35;15.55;;;-8.50;99.90;;;;;;4991473;28;20053;-84
2022/12/13 01:06:44;;;;;;;30.92;14.98;;;-8.60;99.90;;;;;;5016954;28;20041;-85
2022/12/13 01:09:20;;;;;;;28.05;15.18;;;-8.60;99.90;;;;;;5013352;28;20621;-86
2022/12/13 01:11:47;;;;;;;30.10;15.60;;;-8.60;99.90;;;;;;5014035;28;20068;-86
2022/12/13 01:14:14;;;;;;;32.00;15.55;;;-8.60;99.90;;;;;;5013818;28;20402;-86
2022/12/13 01:16:40;;;;;;;31.98;16.55;;;-8.70;99.90;;;;;;4978027;28;20065;-86
2022/12/13 01:19:05;;;;;;;32.58;16.05;;;-8.70;99.90;;;;;;5010358;28;20095;-84
2022/12/13 01:21:31;;;;;;;28.58;14.88;;;-8.70;99.90;;;;;;5002357;28;20061;-85
2022/12/13 01:24:05;;;;;;;29.60;15.07;;;-8.80;99.90;;;;;;4972060;28;20087;-86
2022/12/13 01:26:32;;;;;;;28.02;15.10;;;-8.80;99.90;;;;;;5011933;28;20037;-86
2022/12/13 01:28:58;;;;;;;29.60;15.65;;;-8.80;99.90;;;;;;5012411;28;20045;-86
2022/12/13 01:31:24;;;;;;;35.38;15.75;;;-8.80;99.90;;;;;;4998129;28;20038;-86
2022/12/13 01:33:50;;;;;;;31.67;15.90;;;-8.80;99.90;;;;;;5009710;28;20121;-86
2022/12/13 01:36:18;;;;;;;32.80;15.43;;;-8.80;99.90;;;;;;5005600;28;20112;-86
2022/12/13 01:38:44;;;;;;;30.38;16.23;;;-8.90;99.90;;;;;;4978636;28;20087;-86
2022/12/13 01:41:16;;;;;;;31.00;15.68;;;-8.90;99.90;;;;;;5010919;28;20041;-85
2022/12/13 01:43:42;;;;;;;33.55;16.67;;;-8.90;99.90;;;;;;4994726;28;20132;-86
2022/12/13 01:46:10;;;;;;;28.27;14.80;;;-8.90;99.90;;;;;;5018895;28;20109;-86
2022/12/13 01:48:45;;;;;;;29.23;15.40;;;-8.90;99.90;;;;;;5010626;28;20034;-85
2022/12/13 01:51:16;;;;;;;28.55;15.07;;;-8.90;99.90;;;;;;5002344;28;20140;-85
2022/12/13 01:53:45;;;;;;;30.08;15.18;;;-8.80;99.90;;;;;;5021545;28;20071;-86
2022/12/13 01:56:22;;;;;;;32.10;16.10;;;-8.80;99.90;;;;;;5017651;28;20634;-86
2022/12/13 01:58:50;;;;;;;30.08;15.48;;;-8.80;99.90;;;;;;4994719;28;20052;-86
2022/12/13 02:01:17;;;;;;;31.90;15.98;;;-8.80;99.90;;;;;;4988459;28;20068;-86
2022/12/13 02:04:00;;;;;;;31.23;15.25;;;-8.80;99.90;;;;;;5011558;28;20022;-86
2022/12/13 02:06:35;;;;;;;30.73;16.10;;;-8.80;99.90;;;;;;4997602;28;20037;-85
2022/12/13 02:09:03;;;;;;;;;;;-8.80;99.90;;;;;;4997617;28;20525;-86
2022/12/13 02:11:29;;;;;;;29.65;15.35;;;-8.80;99.90;;;;;;5009171;28;19909;-85
2022/12/13 02:13:54;;;;;;;27.45;15.02;;;-8.80;99.90;;;;;;5007256;28;20045;-85
2022/12/13 02:17:00;;;;;;;27.48;15.25;;;-8.90;99.90;;;;;;5002337;28;20041;-85
2022/12/13 02:19:47;;;;;;;27.83;15.30;;;-8.90;99.90;;;;;;5010521;28;20052;-86
2022/12/13 02:22:19;;;;;;;30.40;15.27;;;-8.90;99.90;;;;;;5011007;28;20272;-87
2022/12/13 02:25:05;;;;;;;32.45;16.05;;;-8.90;99.90;;;;;;5010735;28;20026;-85
2022/12/13 02:28:09;;;;;;;34.05;16.80;;;-8.90;99.90;;;;;;5012370;28;20033;-86
2022/12/13 02:30:42;;;;;;;32.42;15.98;;;-8.90;99.90;;;;;;4898065;29;20056;-86
2022/12/13 02:33:27;;;;;;;27.98;14.77;;;-9.00;99.90;;;;;;4977319;28;20044;-85
2022/12/13 02:36:13;;;;;;;36.78;17.60;;;-9.00;99.90;;;;;;4999427;28;20033;-85
2022/12/13 02:39:01;;;;;;;47.60;23.15;;;-9.00;99.90;;;;;;5000654;28;20085;-85
2022/12/13 02:41:39;;;;;;;37.08;18.38;;;-9.00;99.90;;;;;;5007363;28;20064;-86
2022/12/13 02:44:28;;;;;;;35.33;17.80;;;-9.10;99.90;;;;;;5011833;28;20468;-86
2022/12/13 02:47:28;;;;;;;32.13;16.58;;;-9.10;99.90;;;;;;4980480;28;20514;-84
2022/12/13 02:49:58;;;;;;;35.00;15.68;;;-9.10;99.90;;;;;;4959392;28;20045;-85
2022/12/13 02:52:30;;;;;;;27.42;15.25;;;-9.10;99.90;;;;;;4996784;28;20096;-86
2022/12/13 02:54:56;;;;;;;29.17;14.55;;;-9.20;99.90;;;;;;5011219;28;20192;-85
2022/12/13 02:57:35;;;;;;;27.67;14.63;;;-9.20;99.90;;;;;;4992502;28;20026;-85
2022/12/13 03:00:16;;;;;;;29.63;14.35;;;-9.20;99.90;;;;;;5009387;28;20061;-85
2022/12/13 03:03:07;;;;;;;28.58;15.40;;;-9.20;99.90;;;;;;4986764;28;20038;-85
2022/12/13 03:08:45;;;;;;;29.63;14.75;;;-9.20;99.90;;;;;;5028629;28;20029;-84
2022/12/13 03:11:17;;;;;;;28.15;13.85;;;-9.10;99.90;;;;;;5010971;28;20033;-85
2022/12/13 03:13:58;;;;;;;27.92;14.65;;;-9.10;99.90;;;;;;5011709;28;20044;-86
2022/12/13 03:16:33;;;;;;;26.13;13.23;;;-9.10;99.90;;;;;;4975817;28;20120;-86
2022/12/13 03:19:02;;;;;;;26.48;13.48;;;-9.10;99.90;;;;;;5012223;28;20049;-85
2022/12/13 03:21:28;;;;;;;24.63;13.32;;;-9.10;99.90;;;;;;5009821;28;20029;-85
2022/12/13 03:23:54;;;;;;;26.48;13.30;;;-9.10;99.90;;;;;;5011613;28;20045;-84
2022/12/13 03:26:23;;;;;;;26.63;13.57;;;-9.20;99.90;;;;;;4976181;28;20042;-85
2022/12/13 03:28:50;;;;;;;24.92;14.07;;;-9.20;99.90;;;;;;5027899;28;20561;-85
2022/12/13 03:31:17;;;;;;;28.92;12.27;;;-9.20;99.90;;;;;;5012841;28;20057;-85
2022/12/13 03:33:42;;;;;;;25.70;14.30;;;-9.30;99.90;;;;;;5009488;28;20601;-85
2022/12/13 03:36:09;;;;;;;27.25;13.25;;;-9.30;99.90;;;;;;5008037;28;20040;-85
2022/12/13 03:38:37;;;;;;;28.52;13.15;;;-9.30;99.90;;;;;;4994871;28;20030;-85
2022/12/13 03:41:07;;;;;;;27.92;13.93;;;-9.40;99.90;;;;;;4994773;28;20099;-84
2022/12/13 03:43:33;;;;;;;25.67;12.27;;;-9.40;99.90;;;;;;4991548;28;20034;-84
2022/12/13 03:46:00;;;;;;;25.67;12.80;;;-9.40;99.90;;;;;;4995223;28;20037;-85
2022/12/13 03:48:26;;;;;;;26.02;13.07;;;-9.40;99.90;;;;;;4950949;28;20441;-85
2022/12/13 03:50:53;;;;;;;21.40;12.23;;;-9.30;99.90;;;;;;4978399;28;20065;-86
2022/12/13 03:53:20;;;;;;;23.75;12.50;;;-9.30;99.90;;;;;;5011162;28;20029;-85
2022/12/13 03:55:47;;;;;;;25.23;12.43;;;-9.30;99.90;;;;;;4994475;28;20530;-85
2022/12/13 03:58:12;;;;;;;24.08;12.85;;;-9.30;99.90;;;;;;4977997;28;20037;-85
2022/12/13 04:00:38;;;;;;;24.60;13.55;;;-9.40;99.90;;;;;;4993764;28;20506;-85
2022/12/13 04:03:04;;;;;;;26.33;13.15;;;-9.40;99.90;;;;;;5011027;28;20113;-84
2022/12/13 04:05:30;;;;;;;25.27;13.35;;;-9.40;99.90;;;;;;4994360;28;20486;-85
2022/12/13 04:07:56;;;;;;;20.92;11.00;;;-9.40;99.90;;;;;;4983987;28;20037;-85
2022/12/13 04:10:22;;;;;;;19.90;11.15;;;-9.40;99.90;;;;;;4991797;28;20033;-85
2022/12/13 04:15:32;;;;;;;26.00;13.38;;;-9.40;99.90;;;;;;5011140;28;20025;-86
2022/12/13 04:17:58;;;;;;;17.98;10.45;;;-9.40;99.90;;;;;;5027136;28;20501;-85
2022/12/13 04:20:24;;;;;;;21.67;11.88;;;-9.40;99.90;;;;;;4993574;28;20045;-85
2022/12/13 04:22:50;;;;;;;22.75;11.48;;;-9.50;99.90;;;;;;5001627;28;20517;-85
2022/12/13 04:25:16;;;;;;;24.52;11.85;;;-9.50;99.90;;;;;;4998201;28;20092;-85
2022/12/13 04:27:43;;;;;;;21.35;11.65;;;-9.60;99.90;;;;;;4996920;28;20711;-85
2022/12/13 04:30:09;;;;;;;23.73;12.10;;;-9.60;99.90;;;;;;4995252;28;20041;-84
2022/12/13 04:32:37;;;;;;;25.73;12.55;;;-9.70;99.90;;;;;;4987037;28;20505;-84
2022/12/13 04:35:03;;;;;;;25.60;12.75;;;-9.70;99.90;;;;;;5014379;28;20052;-85
2022/12/13 04:37:30;;;;;;;25.40;12.25;;;-9.60;99.90;;;;;;4998810;28;20033;-84
2022/12/13 04:39:56;;;;;;;22.73;11.57;;;-9.60;99.90;;;;;;4981098;28;20025;-85
2022/12/13 04:42:21;;;;;;;23.65;11.60;;;-9.70;99.90;;;;;;4979482;28;20053;-85
2022/12/13 04:44:48;;;;;;;24.17;13.52;;;-9.70;99.90;;;;;;5014099;28;20022;-85
2022/12/13 04:47:15;;;;;;;29.95;14.38;;;-9.60;99.90;;;;;;5017081;28;20640;-85
2022/12/13 04:49:43;;;;;;;35.08;16.65;;;-9.60;99.90;;;;;;5014018;28;20555;-84
2022/12/13 04:52:09;;;;;;;33.78;17.05;;;-9.60;99.90;;;;;;4996813;28;20029;-84
2022/12/13 04:54:35;;;;;;;36.53;17.55;;;-9.60;99.90;;;;;;4994405;28;20047;-84
2022/12/13 04:57:01;;;;;;;29.98;14.68;;;-9.60;99.90;;;;;;4994961;28;20029;-84
2022/12/13 04:59:27;;;;;;;25.88;12.35;;;-9.60;99.90;;;;;;4985787;28;20104;-84
2022/12/13 05:01:52;;;;;;;22.58;11.13;;;-9.60;99.90;;;;;;4973702;28;20030;-85
2022/12/13 05:04:18;;;;;;;20.70;10.70;;;-9.50;99.90;;;;;;4981168;28;20037;-85
2022/12/13 05:06:44;;;;;;;22.15;10.25;;;-9.50;99.90;;;;;;5004039;28;20036;-85
2022/12/13 05:09:10;;;;;;;19.17;10.32;;;-9.50;99.90;;;;;;5000802;28;20429;-84
2022/12/13 05:11:35;;;;;;;17.92;9.55;;;-9.40;99.90;;;;;;5010208;28;20036;-84
2022/12/13 05:14:01;;;;;;;17.80;9.35;;;-9.40;99.90;;;;;;4977542;28;20491;-85
2022/12/13 05:16:27;;;;;;;18.42;10.45;;;-9.40;99.90;;;;;;5009439;28;20033;-84
2022/12/13 05:18:53;;;;;;;21.77;11.05;;;-9.50;99.90;;;;;;5012337;28;20644;-85
2022/12/13 05:21:19;;;;;;;19.20;10.32;;;-9.50;99.90;;;;;;4997172;28;20044;-84
2022/12/13 05:23:45;;;;;;;20.48;11.15;;;-9.50;99.90;;;;;;4977244;28;20030;-83
2022/12/13 05:26:10;;;;;;;21.75;10.50;;;-9.50;99.90;;;;;;4989569;28;20049;-84
2022/12/13 05:28:36;;;;;;;22.95;11.02;;;-9.60;99.90;;;;;;4979277;28;20037;-84
2022/12/13 05:31:09;;;;;;;19.25;10.45;;;-9.60;99.90;;;;;;5013251;28;20048;-85
2022/12/13 05:33:35;;;;;;;20.92;12.10;;;-9.50;99.90;;;;;;5011815;28;20056;-84
2022/12/13 05:36:01;;;;;;;18.25;10.38;;;-9.50;99.90;;;;;;5012380;28;20059;-84
2022/12/13 05:38:28;;;;;;;22.25;11.15;;;-9.50;99.90;;;;;;4985477;28;20022;-85
2022/12/13 05:40:53;;;;;;;19.00;10.07;;;-9.60;99.90;;;;;;4983489;28;20033;-85
2022/12/13 05:43:19;;;;;;;22.33;10.05;;;-9.60;99.90;;;;;;4996928;28;20037;-84
2022/12/13 05:45:46;;;;;;;20.15;10.48;;;-9.70;99.90;;;;;;4997054;28;20033;-85
2022/12/13 05:48:12;;;;;;;19.00;9.98;;;-9.70;99.90;;;;;;4999460;28;20118;-85
2022/12/13 05:50:38;;;;;;;20.40;9.77;;;-9.80;99.90;;;;;;4987470;28;20057;-85
2022/12/13 05:53:05;;;;;;;19.98;9.75;;;-9.80;99.90;;;;;;4965593;28;20121;-85
2022/12/13 05:55:31;;;;;;;18.63;9.55;;;-9.80;99.90;;;;;;4996898;28;20117;-84
2022/12/13 05:57:58;;;;;;;23.58;9.70;;;-9.80;99.90;;;;;;4994687;28;20494;-84
2022/12/13 06:00:24;;;;;;;17.92;9.63;;;-9.90;99.90;;;;;;4995249;28;20029;-84
2022/12/13 06:02:51;;;;;;;19.27;10.48;;;-9.90;99.90;;;;;;4996412;28;20032;-85
2022/12/13 06:05:17;;;;;;;21.63;10.52;;;-10.00;99.90;;;;;;5012737;28;20029;-84
2022/12/13 06:07:42;;;;;;;20.48;10.02;;;-10.00;99.90;;;;;;4983493;28;20390;-84
2022/12/13 06:10:08;;;;;;;16.88;9.68;;;-10.00;99.90;;;;;;4963787;28;20509;-84
2022/12/13 06:12:35;;;;;;;14.80;8.68;;;-10.00;99.90;;;;;;4964266;28;20041;-85
2022/12/13 06:15:02;;;;;;;19.08;9.52;;;-10.00;99.90;;;;;;5012563;28;20037;-85
2022/12/13 06:17:32;;;;;;;18.48;9.73;;;-10.00;99.90;;;;;;4982899;28;20025;-85
2022/12/13 06:19:59;;;;;;;16.77;9.15;;;-10.00;99.90;;;;;;4995846;28;20442;-84
2022/12/13 06:22:25;;;;;;;17.63;9.23;;;-10.00;99.90;;;;;;4996132;28;20556;-84
2022/12/13 06:24:51;;;;;;;20.75;9.10;;;-10.00;99.90;;;;;;5002786;28;20038;-84
2022/12/13 06:27:17;;;;;;;17.88;8.82;;;-10.00;99.90;;;;;;5012656;28;20482;-84
2022/12/13 06:29:43;;;;;;;14.85;8.23;;;-10.10;99.90;;;;;;5011528;28;20024;-84
2022/12/13 06:32:09;;;;;;;17.40;9.05;;;-10.20;99.90;;;;;;4997528;28;20026;-85
2022/12/13 06:34:35;;;;;;;18.95;8.70;;;-10.20;99.90;;;;;;4996067;28;20049;-85
2022/12/13 06:37:03;;;;;;;14.70;8.30;;;-10.20;99.90;;;;;;5018492;28;20087;-84
2022/12/13 06:39:29;;;;;;;16.00;8.80;;;-10.20;99.90;;;;;;5005053;28;20030;-84
2022/12/13 06:41:55;;;;;;;16.20;8.27;;;-10.10;99.90;;;;;;4982247;28;20053;-85
2022/12/13 06:44:21;;;;;;;15.25;8.60;;;-10.10;99.90;;;;;;4996014;28;20037;-85
2022/12/13 06:46:47;;;;;;;15.10;8.55;;;-10.10;99.90;;;;;;5017588;28;20041;-84
2022/12/13 06:49:13;;;;;;;15.98;8.65;;;-10.10;99.90;;;;;;4991825;28;20091;-84
2022/12/13 06:51:39;;;;;;;15.40;8.23;;;-10.10;99.90;;;;;;4995052;28;20715;-84
2022/12/13 06:54:05;;;;;;;17.92;9.07;;;-10.20;99.90;;;;;;4995368;28;20136;-84
2022/12/13 06:56:31;;;;;;;15.70;8.10;;;-10.10;99.90;;;;;;5003227;28;20536;-85
2022/12/13 06:58:57;;;;;;;13.73;7.75;;;-10.10;99.90;;;;;;4995641;28;20457;-84
2022/12/13 07:01:23;;;;;;;13.65;7.18;;;-10.20;99.90;;;;;;4994670;28;20037;-85
2022/12/13 07:03:49;;;;;;;13.60;7.70;;;-10.20;99.90;;;;;;4991233;28;20095;-84
2022/12/13 07:06:17;;;;;;;13.25;8.00;;;-10.20;99.90;;;;;;4972357;28;20029;-84
2022/12/13 07:08:47;;;;;;;15.07;8.32;;;-10.20;99.90;;;;;;4993587;28;20100;-84
2022/12/13 07:11:14;;;;;;;14.35;8.00;;;-10.10;99.90;;;;;;4990991;28;20021;-85
2022/12/13 07:13:42;;;;;;;13.25;7.60;;;-10.10;99.90;;;;;;5008459;28;20033;-84
2022/12/13 07:16:07;;;;;;;18.17;10.05;;;-10.10;99.90;;;;;;4974789;28;20124;-84
2022/12/13 07:18:33;;;;;;;18.45;9.90;;;-10.10;99.90;;;;;;4976973;28;20200;-84
2022/12/13 07:20:59;;;;;;;19.92;10.23;;;-10.10;99.90;;;;;;4992427;28;20605;-85
2022/12/13 07:23:25;;;;;;;16.73;8.98;;;-10.00;99.90;;;;;;4960280;28;20491;-85
2022/12/13 07:25:52;;;;;;;16.55;8.52;;;-9.90;99.90;;;;;;4975600;28;20066;-84
2022/12/13 07:28:19;;;;;;;16.65;8.82;;;-9.80;99.90;;;;;;4989301;28;20052;-85
2022/12/13 07:30:45;;;;;;;16.77;8.35;;;-9.80;99.90;;;;;;4975637;28;20092;-84
2022/12/13 07:33:12;;;;;;;16.42;8.45;;;-9.80;99.90;;;;;;4997641;28;20081;-84
2022/12/13 07:35:38;;;;;;;17.20;8.32;;;-9.80;99.90;;;;;;5009720;28;20030;-84
2022/12/13 07:38:05;;;;;;;16.02;8.73;;;-9.80;99.90;;;;;;5008215;28;20046;-85
2022/12/13 07:40:36;;;;;;;15.30;8.38;;;-9.80;99.90;;;;;;4994251;28;20032;-84
2022/12/13 07:43:03;;;;;;;14.43;8.25;;;-9.70;99.90;;;;;;4997885;28;20044;-84
2022/12/13 07:45:29;;;;;;;13.82;7.78;;;-9.70;99.90;;;;;;4992157;28;20053;-85
2022/12/13 07:47:54;;;;;;;14.77;7.95;;;-9.70;99.90;;;;;;4968455;28;20034;-85
2022/12/13 07:50:20;;;;;;;15.80;8.27;;;-9.70;99.90;;;;;;4990820;28;20495;-85
2022/12/13 07:52:47;;;;;;;16.08;8.55;;;-9.70;99.90;;;;;;4975253;28;20064;-84
2022/12/13 07:55:14;;;;;;;14.93;8.43;;;-9.70;99.90;;;;;;5010200;28;20026;-85
2022/12/13 07:57:40;;;;;;;12.63;8.18;;;-9.70;99.90;;;;;;5024378;28;20033;-84
2022/12/13 08:00:06;;;;;;;14.68;8.25;;;-9.60;99.90;;;;;;4996500;28;20037;-84
2022/12/13 08:02:40;;;;;;;15.50;8.07;;;-9.60;99.90;;;;;;5020508;28;20069;-85
2022/12/13 08:05:06;;;;;;;13.98;7.80;;;-9.40;99.90;;;;;;4998397;28;20029;-85
2022/12/13 08:07:32;;;;;;;14.23;8.52;;;-9.30;99.90;;;;;;4999723;28;20037;-84
2022/12/13 08:09:58;;;;;;;16.70;8.43;;;-9.20;99.90;;;;;;4981644;28;20034;-85
2022/12/13 08:12:23;;;;;;;18.90;9.15;;;-9.10;99.90;;;;;;4987799;28;20713;-84
2022/12/13 08:14:50;;;;;;;17.60;9.40;;;-9.10;99.90;;;;;;4998632;28;20464;-85
2022/12/13 08:17:15;;;;;;;16.50;9.52;;;-9.10;99.90;;;;;;4998226;28;20052;-84
2022/12/13 08:19:41;;;;;;;17.25;8.70;;;-9.00;99.90;;;;;;4979781;28;20534;-85
2022/12/13 08:22:12;;;;;;;16.50;8.77;;;-9.00;99.90;;;;;;5023329;28;20045;-84
2022/12/13 08:24:38;;;;;;;14.50;8.15;;;-8.90;99.90;;;;;;5014892;28;20049;-84
2022/12/13 08:27:04;;;;;;;19.40;10.18;;;-8.90;99.90;;;;;;4982747;28;20037;-84
2022/12/13 08:29:31;;;;;;;22.73;10.27;;;-8.80;99.90;;;;;;4979629;28;20084;-85
2022/12/13 08:31:57;;;;;;;26.83;10.55;;;-8.70;99.90;;;;;;5010707;28;20083;-84
2022/12/13 08:34:23;;;;;;;17.65;8.48;;;-8.60;99.90;;;;;;4996764;28;20037;-84
2022/12/13 08:36:51;;;;;;;16.27;8.57;;;-8.50;99.90;;;;;;5004733;28;20120;-88
2022/12/13 08:39:16;;;;;;;18.73;8.98;;;-8.40;99.90;;;;;;5011992;28;20704;-84
2022/12/13 08:41:42;;;;;;;15.38;8.30;;;-8.30;99.90;;;;;;5014251;28;20022;-84
2022/12/13 08:44:08;;;;;;;15.45;7.88;;;-8.20;99.90;;;;;;4990039;28;20040;-87
2022/12/13 08:46:34;;;;;;;15.70;8.27;;;-8.20;99.90;;;;;;4999845;28;20041;-85
2022/12/13 08:49:00;;;;;;;15.10;8.52;;;-8.10;99.90;;;;;;4974674;28;20068;-87
2022/12/13 08:51:25;;;;;;;14.98;8.30;;;-8.10;99.90;;;;;;4978030;28;20058;-84
2022/12/13 08:53:51;;;;;;;16.63;8.40;;;-8.00;99.90;;;;;;4993143;28;20091;-89
2022/12/13 08:56:17;;;;;;;16.52;9.52;;;-7.90;99.90;;;;;;4995747;28;20048;-87
2022/12/13 08:58:47;;;;;;;17.65;9.50;;;-7.90;99.90;;;;;;4995094;28;20552;-84
2022/12/13 09:01:13;;;;;;;13.30;7.40;;;-7.80;99.90;;;;;;5011512;28;20029;-84
2022/12/13 09:03:39;;;;;;;14.95;7.97;;;-7.80;99.90;;;;;;5011943;28;20049;-85
2022/12/13 09:06:18;;;;;;;16.02;8.93;;;-7.70;99.90;;;;;;4976068;28;20038;-88
2022/12/13 09:08:44;;;;;;;13.38;7.60;;;-7.60;99.90;;;;;;4975271;28;20061;-88
2022/12/13 09:11:10;;;;;;;15.52;8.50;;;-7.60;99.90;;;;;;5004949;28;20518;-85
2022/12/13 09:13:38;;;;;;;17.88;8.73;;;-7.40;99.90;;;;;;5014843;28;20060;-85
2022/12/13 09:16:05;;;;;;;15.27;7.88;;;-7.40;99.90;;;;;;5010939;28;20037;-85
2022/12/13 09:18:31;;;;;;;15.30;8.30;;;-7.30;99.90;;;;;;5003308;28;20330;-85
2022/12/13 09:20:57;;;;;;;16.48;8.27;;;-7.30;99.90;;;;;;5013344;28;20073;-85
2022/12/13 09:23:23;;;;;;;13.45;7.50;;;-7.30;99.90;;;;;;5013161;28;20041;-88
2022/12/13 09:25:56;;;;;;;18.40;8.23;;;-7.20;99.90;;;;;;5012885;28;20046;-87
2022/12/13 09:28:22;;;;;;;16.48;7.93;;;-7.20;99.90;;;;;;5012633;28;20584;-86
2022/12/13 09:30:49;;;;;;;14.43;7.50;;;-7.20;99.90;;;;;;5012407;28;20466;-85
2022/12/13 09:33:15;;;;;;;15.48;8.18;;;-7.10;99.90;;;;;;5012884;28;20073;-85
2022/12/13 09:35:40;;;;;;;15.88;7.22;;;-7.10;99.90;;;;;;5012308;28;20033;-85
2022/12/13 09:38:07;;;;;;;20.52;7.85;;;-6.90;99.90;;;;;;4995958;28;20037;-85
2022/12/13 09:40:37;;;;;;;15.13;7.65;;;-6.90;99.90;;;;;;5015868;28;20026;-85
2022/12/13 09:43:04;;;;;;;14.32;7.70;;;-6.80;99.90;;;;;;4983858;28;20122;-86
2022/12/13 09:45:30;;;;;;;16.30;8.20;;;-6.70;99.90;;;;;;4999216;28;20040;-88
2022/12/13 09:47:57;;;;;;;18.08;8.05;;;-6.70;99.90;;;;;;4999280;28;20064;-85
2022/12/13 09:50:33;;;;;;;16.23;8.02;;;-6.60;99.90;;;;;;4998960;28;20037;-84
2022/12/13 09:53:05;;;;;;;14.82;8.23;;;-6.50;99.90;;;;;;5015968;28;20541;-85
2022/12/13 09:55:48;;;;;;;16.83;7.82;;;-6.50;99.90;;;;;;5015280;28;20032;-89
2022/12/13 09:58:26;;;;;;;17.30;8.23;;;-6.40;99.90;;;;;;4999088;28;20033;-87
2022/12/13 10:01:06;;;;;;;22.52;9.07;;;-6.30;99.90;;;;;;5000807;28;20044;-89
2022/12/13 10:03:33;;;;;;;17.23;8.45;;;-6.20;99.90;;;;;;4986908;28;20040;-89
2022/12/13 10:06:11;;;;;;;13.00;6.93;;;-6.10;99.90;;;;;;5000188;28;20033;-86
2022/12/13 10:08:41;;;;;;;14.60;7.30;;;-6.10;99.90;;;;;;5013557;28;20036;-86
2022/12/13 10:11:12;;;;;;;11.07;5.80;;;-6.00;99.90;;;;;;5002532;28;20133;-86
2022/12/13 10:14:02;;;;;;;13.73;6.60;;;-6.00;99.90;;;;;;5031211;28;20124;-84
2022/12/13 10:16:49;;;;;;;15.05;7.10;;;-6.00;99.90;;;;;;5014957;28;20549;-84
2022/12/13 10:19:34;;;;;;;15.73;8.05;;;-5.90;99.90;;;;;;5019540;28;20036;-87
2022/12/13 10:22:05;;;;;;;13.25;7.65;;;-5.80;99.90;;;;;;4992084;28;20088;-85
2022/12/13 10:24:56;;;;;;;18.88;9.80;;;-5.80;99.90;;;;;;5007945;28;20037;-84
2022/12/13 10:27:39;;;;;;;19.25;9.52;;;-5.70;99.90;;;;;;4995960;28;20465;-84
2022/12/13 10:30:16;;;;;;;18.88;10.02;;;-5.70;99.90;;;;;;4986132;28;20029;-86
2022/12/13 10:32:55;;;;;;;17.15;7.53;;;-5.60;99.90;;;;;;5010230;28;20021;-86
2022/12/13 10:35:36;;;;;;;16.70;8.60;;;-5.60;99.90;;;;;;5009225;28;20049;-86
2022/12/13 10:38:29;;;;;;;15.65;7.72;;;-5.60;99.90;;;;;;4995674;28;20036;-90
2022/12/13 10:40:54;;;;;;;16.45;7.75;;;-5.60;99.90;;;;;;5001842;28;20030;-86
2022/12/13 10:43:21;;;;;;;16.38;7.55;;;-5.50;99.90;;;;;;5003089;28;20053;-85
2022/12/13 10:45:57;;;;;;;13.98;7.72;;;-5.50;99.90;;;;;;4999540;28;20041;-85
2022/12/13 10:48:32;;;;;;;15.82;8.38;;;-5.50;99.90;;;;;;5010361;28;20029;-85
2022/12/13 10:51:04;;;;;;;13.73;7.00;;;-5.50;99.90;;;;;;5019941;28;20082;-85
2022/12/13 10:53:38;;;;;;;13.27;6.07;;;-5.40;99.90;;;;;;5002236;28;20061;-85
2022/12/13 10:56:05;;;;;;;10.63;6.10;;;-5.40;99.90;;;;;;4994505;28;20581;-85
2022/12/13 10:58:39;;;;;;;14.55;7.00;;;-5.40;99.90;;;;;;5010509;28;20541;-85
2022/12/13 11:01:17;;;;;;;11.00;6.22;;;-5.40;99.90;;;;;;5005468;28;20487;-85
2022/12/13 11:03:59;;;;;;;14.52;7.65;;;-5.30;99.90;;;;;;4996046;28;20038;-85
2022/12/13 11:06:27;;;;;;;14.68;7.47;;;-5.20;99.90;;;;;;5019074;28;20057;-85
2022/12/13 11:08:53;;;;;;;12.38;6.95;;;-5.20;99.90;;;;;;4979929;28;20033;-86
2022/12/13 11:11:28;;;;;;;14.00;6.75;;;-5.10;99.90;;;;;;5000969;28;20124;-85
2022/12/13 11:14:00;;;;;;;13.50;6.53;;;-5.00;99.90;;;;;;5023875;28;20037;-85
2022/12/13 11:16:31;;;;;;;12.95;6.35;;;-5.00;99.90;;;;;;4993836;28;20120;-85
2022/12/13 11:19:01;;;;;;;11.57;6.70;;;-4.90;99.90;;;;;;4979790;28;20029;-85
2022/12/13 11:21:29;;;;;;;12.00;6.32;;;-4.70;99.90;;;;;;4983779;28;20380;-85
2022/12/13 11:23:58;;;;;;;13.85;6.90;;;-4.60;99.90;;;;;;4976113;28;20034;-85
2022/12/13 11:26:25;;;;;;;13.02;6.43;;;-4.60;99.90;;;;;;4995541;28;20056;-86
2022/12/13 11:29:19;;;;;;;10.15;6.07;;;-4.60;99.90;;;;;;4992491;28;20034;-85
2022/12/13 11:32:02;;;;;;;12.82;6.18;;;-4.60;99.90;;;;;;5010056;28;20038;-86
2022/12/13 11:34:41;;;;;;;12.95;6.10;;;-4.50;99.90;;;;;;5014998;28;20052;-85
2022/12/13 11:37:17;;;;;;;15.57;6.63;;;-4.50;99.90;;;;;;5006123;28;20261;-85
2022/12/13 11:39:52;;;;;;;13.82;7.03;;;-4.50;99.90;;;;;;5030654;28;20022;-85
2022/12/13 11:42:37;;;;;;;14.60;6.57;;;-4.50;99.90;;;;;;5009584;28;20036;-85
2022/12/13 11:45:24;;;;;;;14.82;7.32;;;-4.50;99.90;;;;;;5000034;28;20037;-85
2022/12/13 11:48:08;;;;;;;17.02;7.97;;;-4.50;99.90;;;;;;5009575;28;20108;-86
2022/12/13 11:50:44;;;;;;;15.07;7.72;;;-4.40;99.90;;;;;;4976724;28;20060;-85
2022/12/13 11:53:29;;;;;;;15.15;6.63;;;-4.40;99.90;;;;;;4991199;28;20029;-84
2022/12/13 11:56:22;;;;;;;14.65;7.15;;;-4.40;99.90;;;;;;4996256;28;20065;-85
2022/12/13 11:59:21;;;;;;;14.68;7.38;;;-4.30;99.90;;;;;;4996271;28;20086;-85
2022/12/13 12:01:52;;;;;;;14.05;7.00;;;-4.40;99.90;;;;;;4968823;28;20077;-85
2022/12/13 12:04:30;;;;;;;13.10;7.13;;;-4.30;99.90;;;;;;4992701;28;20053;-85
2022/12/13 12:07:06;;;;;;;15.52;7.63;;;-4.30;99.90;;;;;;5024173;28;20104;-85
2022/12/13 12:09:35;;;;;;;13.52;6.85;;;-4.20;99.90;;;;;;4975300;28;20030;-85
2022/12/13 12:12:20;;;;;;;11.77;6.72;;;-4.20;99.90;;;;;;4992151;28;20185;-85
2022/12/13 12:14:51;;;;;;;12.13;6.63;;;-4.10;99.90;;;;;;4973342;28;20057;-83
2022/12/13 12:17:22;;;;;;;13.63;6.68;;;-4.10;99.90;;;;;;5001165;28;20042;-85
2022/12/13 12:19:52;;;;;;;10.73;6.35;;;-4.10;99.90;;;;;;5005355;28;20048;-85
2022/12/13 12:22:29;;;;;;;11.70;6.43;;;-4.00;99.90;;;;;;5021362;28;20087;-84
2022/12/13 12:25:34;;;;;;;11.73;6.82;;;-4.00;99.90;;;;;;5008640;28;20021;-85
2022/12/13 12:28:12;;;;;;;11.50;6.13;;;-4.00;99.90;;;;;;5012054;28;20040;-88
2022/12/13 12:31:16;;;;;;;12.00;6.47;;;-4.00;99.90;;;;;;5012526;28;20525;-86
2022/12/13 12:34:01;;;;;;;10.40;6.20;;;-3.90;99.90;;;;;;5029017;28;20033;-85
2022/12/13 12:37:01;;;;;;;13.18;6.78;;;-3.80;99.90;;;;;;5028914;28;20490;-86
2022/12/13 12:39:50;;;;;;;13.93;6.70;;;-3.80;99.90;;;;;;5012350;28;20087;-86
2022/12/13 12:42:58;;;;;;;14.63;7.93;;;-3.70;99.90;;;;;;5011587;28;20029;-85
2022/12/13 12:45:39;;;;;;;13.10;6.82;;;-3.60;99.90;;;;;;5023702;28;20034;-86
2022/12/13 12:48:29;;;;;;;12.75;6.38;;;-3.60;99.90;;;;;;5011831;28;20136;-85
2022/12/13 12:51:33;;;;;;;14.15;7.03;;;-3.60;99.90;;;;;;4993105;28;20030;-87
2022/12/13 12:54:10;;;;;;;13.88;6.95;;;-3.60;99.90;;;;;;5011936;28;20748;-87